createdAt,value
2018-05-27T00:00:18.838Z,19.81
2018-05-27T00:01:18.875Z,19.74
2018-05-27T00:02:18.909Z,19.83
2018-05-27T00:03:18.947Z,19.86
2018-05-27T00:04:18.983Z,19.84
2018-05-27T00:05:19.020Z,19.95
2018-05-27T00:06:19.058Z,19.92
2018-05-27T00:07:19.094Z,19.98
2018-05-27T00:08:19.132Z,19.92
2018-05-27T00:09:19.168Z,19.96
2018-05-27T00:10:19.205Z,19.94
2018-05-27T00:11:19.242Z,19.92
2018-05-27T00:12:19.277Z,19.87
2018-05-27T00:13:19.315Z,19.91
2018-05-27T00:14:19.351Z,19.84
2018-05-27T00:15:19.389Z,19.80
2018-05-27T00:16:19.425Z,19.83
2018-05-27T00:17:19.464Z,19.83
2018-05-27T00:18:19.500Z,19.81
2018-05-27T00:19:19.539Z,19.78
2018-05-27T00:20:19.571Z,19.74
2018-05-27T00:21:19.609Z,19.76
2018-05-27T00:22:19.645Z,19.77
2018-05-27T00:23:19.682Z,19.73
2018-05-27T00:24:19.720Z,19.63
2018-05-27T00:25:19.756Z,19.66
2018-05-27T00:26:19.793Z,19.65
2018-05-27T00:27:19.830Z,19.58
2018-05-27T00:28:19.866Z,19.63
2018-05-27T00:29:19.907Z,19.59
2018-05-27T00:30:19.944Z,19.47
2018-05-27T00:31:19.977Z,19.46
2018-05-27T00:32:20.012Z,19.50
2018-05-27T00:33:20.050Z,19.44
2018-05-27T00:34:20.085Z,19.46
2018-05-27T00:35:20.123Z,19.37
2018-05-27T00:36:20.159Z,19.39
2018-05-27T00:37:20.196Z,19.37
2018-05-27T00:38:20.235Z,19.36
2018-05-27T00:39:20.273Z,19.32
2018-05-27T00:40:20.305Z,19.47
2018-05-27T00:41:20.343Z,19.48
2018-05-27T00:42:20.379Z,19.46
2018-05-27T00:43:20.417Z,19.48
2018-05-27T00:44:20.451Z,19.46
2018-05-27T00:45:20.489Z,19.47
2018-05-27T00:46:20.525Z,19.54
2018-05-27T00:47:20.562Z,19.56
2018-05-27T00:48:20.597Z,19.65
2018-05-27T00:49:20.635Z,19.68
2018-05-27T00:50:20.671Z,19.66
2018-05-27T00:51:20.707Z,19.68
2018-05-27T00:52:20.745Z,19.63
2018-05-27T00:53:20.783Z,19.71
2018-05-27T00:54:20.817Z,19.56
2018-05-27T00:55:20.855Z,19.55
2018-05-27T00:56:20.890Z,19.44
2018-05-27T00:57:20.928Z,19.46
2018-05-27T00:58:20.964Z,19.47
2018-05-27T00:59:21.000Z,19.48
2018-05-27T01:00:21.037Z,19.31
2018-05-27T01:01:21.073Z,19.32
2018-05-27T01:02:21.112Z,19.22
2018-05-27T01:03:21.147Z,19.21
2018-05-27T01:04:21.183Z,19.19
2018-05-27T01:05:21.222Z,19.16
2018-05-27T01:06:21.256Z,19.00
2018-05-27T01:07:21.293Z,19.11
2018-05-27T01:08:21.329Z,19.11
2018-05-27T01:09:21.365Z,19.08
2018-05-27T01:10:21.403Z,19.06
2018-05-27T01:11:21.442Z,19.02
2018-05-27T01:12:21.475Z,19.04
2018-05-27T01:13:21.512Z,18.99
2018-05-27T01:14:21.549Z,19.18
2018-05-27T01:15:21.587Z,19.04
2018-05-27T01:16:21.622Z,19.16
2018-05-27T01:17:21.657Z,19.18
2018-05-27T01:18:21.694Z,19.14
2018-05-27T01:19:21.731Z,19.14
2018-05-27T01:20:21.767Z,19.13
2018-05-27T01:21:21.802Z,19.14
2018-05-27T01:22:21.840Z,19.18
2018-05-27T01:23:21.877Z,19.11
2018-05-27T01:24:21.912Z,19.11
2018-05-27T01:25:21.954Z,19.19
2018-05-27T01:26:21.986Z,19.14
2018-05-27T01:27:22.023Z,19.11
2018-05-27T01:28:22.058Z,19.16
2018-05-27T01:29:22.095Z,19.11
2018-05-27T01:30:22.133Z,19.11
2018-05-27T01:31:22.169Z,19.13
2018-05-27T01:32:22.206Z,19.25
2018-05-27T01:33:22.243Z,19.26
2018-05-27T01:34:22.283Z,19.26
2018-05-27T01:35:22.316Z,19.26
2018-05-27T01:36:22.351Z,19.26
2018-05-27T01:37:22.389Z,19.18
2018-05-27T01:38:22.425Z,19.26
2018-05-27T01:39:22.463Z,19.22
2018-05-27T01:40:22.498Z,19.28
2018-05-27T01:41:22.535Z,19.26
2018-05-27T01:42:22.572Z,19.26
2018-05-27T01:43:22.612Z,19.16
2018-05-27T01:44:22.643Z,19.16
2018-05-27T01:45:22.684Z,19.11
2018-05-27T01:46:22.722Z,19.06
2018-05-27T01:47:22.754Z,19.00
2018-05-27T01:48:22.791Z,18.91
2018-05-27T01:49:22.827Z,18.95
2018-05-27T01:50:22.867Z,18.80
2018-05-27T01:51:22.902Z,18.76
2018-05-27T01:52:22.938Z,18.76
2018-05-27T01:53:22.975Z,18.66
2018-05-27T01:54:23.012Z,18.76
2018-05-27T01:55:23.050Z,18.70
2018-05-27T01:56:23.084Z,18.65
2018-05-27T01:57:23.120Z,18.63
2018-05-27T01:58:23.162Z,18.69
2018-05-27T01:59:23.193Z,18.62
2018-05-27T02:00:23.231Z,18.72
2018-05-27T02:01:23.268Z,18.60
2018-05-27T02:02:23.303Z,18.70
2018-05-27T02:03:23.345Z,18.62
2018-05-27T02:04:23.381Z,18.65
2018-05-27T02:05:23.418Z,18.58
2018-05-27T02:06:23.449Z,18.52
2018-05-27T02:07:23.487Z,18.48
2018-05-27T02:08:23.523Z,18.47
2018-05-27T02:09:23.561Z,18.50
2018-05-27T02:10:23.596Z,18.36
2018-05-27T02:11:23.633Z,18.41
2018-05-27T02:12:23.668Z,18.21
2018-05-27T02:13:23.705Z,18.32
2018-05-27T02:14:23.742Z,18.32
2018-05-27T02:15:23.778Z,18.27
2018-05-27T02:16:23.815Z,18.29
2018-05-27T02:17:23.850Z,18.32
2018-05-27T02:18:23.885Z,18.25
2018-05-27T02:19:23.922Z,18.26
2018-05-27T02:20:23.958Z,18.32
2018-05-27T02:21:24.000Z,18.23
2018-05-27T02:22:24.032Z,18.30
2018-05-27T02:23:24.068Z,18.30
2018-05-27T02:24:24.113Z,18.21
2018-05-27T02:25:24.139Z,18.20
2018-05-27T02:26:24.177Z,18.30
2018-05-27T02:27:24.820Z,18.21
2018-05-27T02:28:24.258Z,18.27
2018-05-27T02:29:24.285Z,18.25
2018-05-27T02:30:24.326Z,18.25
2018-05-27T02:31:24.359Z,18.26
2018-05-27T02:32:24.394Z,18.20
2018-05-27T02:33:24.442Z,18.26
2018-05-27T02:34:24.475Z,18.21
2018-05-27T02:35:24.504Z,18.18
2018-05-27T02:36:24.542Z,18.33
2018-05-27T02:37:24.579Z,18.20
2018-05-27T02:38:24.616Z,18.26
2018-05-27T02:39:24.657Z,18.25
2018-05-27T02:40:24.687Z,18.17
2018-05-27T02:41:24.720Z,18.21
2018-05-27T02:42:24.760Z,18.21
2018-05-27T02:43:24.808Z,18.17
2018-05-27T02:44:24.827Z,18.14
2018-05-27T02:45:24.862Z,18.17
2018-05-27T02:46:24.899Z,18.11
2018-05-27T02:47:24.935Z,18.08
2018-05-27T02:48:24.970Z,18.14
2018-05-27T02:49:25.009Z,18.05
2018-05-27T02:50:25.044Z,18.12
2018-05-27T02:51:25.078Z,18.08
2018-05-27T02:52:25.113Z,18.08
2018-05-27T02:53:25.150Z,18.07
2018-05-27T02:54:25.224Z,18.12
2018-05-27T02:55:25.223Z,18.02
2018-05-27T02:56:25.259Z,17.99
2018-05-27T02:57:25.294Z,17.97
2018-05-27T02:58:25.329Z,17.99
2018-05-27T02:59:25.366Z,18.05
2018-05-27T03:00:25.401Z,17.90
2018-05-27T03:01:25.444Z,17.93
2018-05-27T03:02:25.474Z,17.95
2018-05-27T03:03:25.512Z,17.96
2018-05-27T03:04:25.545Z,17.84
2018-05-27T03:05:25.581Z,17.90
2018-05-27T03:06:25.617Z,17.86
2018-05-27T03:07:25.653Z,17.79
2018-05-27T03:08:25.688Z,17.81
2018-05-27T03:09:25.724Z,17.86
2018-05-27T03:10:25.760Z,17.81
2018-05-27T03:11:25.795Z,17.82
2018-05-27T03:12:25.832Z,17.84
2018-05-27T03:13:25.867Z,17.79
2018-05-27T03:14:25.902Z,17.74
2018-05-27T03:15:25.939Z,17.71
2018-05-27T03:16:25.974Z,17.77
2018-05-27T03:17:26.010Z,17.86
2018-05-27T03:18:26.046Z,17.77
2018-05-27T03:19:26.082Z,17.75
2018-05-27T03:20:26.116Z,17.74
2018-05-27T03:21:26.153Z,17.77
2018-05-27T03:22:26.188Z,17.66
2018-05-27T03:23:26.226Z,17.70
2018-05-27T03:24:26.259Z,17.64
2018-05-27T03:25:26.294Z,17.64
2018-05-27T03:26:26.331Z,17.59
2018-05-27T03:27:26.367Z,17.66
2018-05-27T03:28:26.402Z,17.63
2018-05-27T03:29:26.438Z,17.64
2018-05-27T03:30:26.474Z,17.68
2018-05-27T03:31:26.518Z,17.58
2018-05-27T03:32:26.543Z,17.49
2018-05-27T03:33:26.580Z,17.55
2018-05-27T03:34:26.615Z,17.58
2018-05-27T03:35:26.652Z,17.59
2018-05-27T03:36:26.688Z,17.56
2018-05-27T03:37:26.721Z,17.59
2018-05-27T03:38:26.758Z,17.54
2018-05-27T03:39:26.794Z,17.52
2018-05-27T03:40:26.829Z,17.58
2018-05-27T03:41:26.868Z,17.54
2018-05-27T03:42:26.900Z,17.62
2018-05-27T03:43:26.937Z,17.56
2018-05-27T03:44:26.974Z,17.62
2018-05-27T03:45:27.008Z,17.63
2018-05-27T03:46:27.043Z,17.64
2018-05-27T03:47:27.080Z,17.54
2018-05-27T03:48:27.114Z,17.62
2018-05-27T03:49:27.149Z,17.62
2018-05-27T03:50:27.192Z,17.56
2018-05-27T03:51:27.222Z,17.49
2018-05-27T03:52:27.257Z,17.58
2018-05-27T03:53:27.291Z,17.58
2018-05-27T03:54:27.331Z,17.48
2018-05-27T03:55:27.363Z,17.46
2018-05-27T03:56:27.399Z,17.51
2018-05-27T03:57:27.435Z,17.38
2018-05-27T03:58:27.470Z,17.43
2018-05-27T03:59:27.505Z,17.34
2018-05-27T04:00:27.541Z,17.37
2018-05-27T04:01:27.578Z,17.36
2018-05-27T04:02:27.612Z,17.38
2018-05-27T04:03:27.648Z,17.46
2018-05-27T04:04:27.682Z,17.38
2018-05-27T04:05:27.719Z,17.46
2018-05-27T04:06:27.754Z,17.43
2018-05-27T04:07:27.790Z,17.33
2018-05-27T04:08:27.826Z,17.40
2018-05-27T04:09:27.861Z,17.36
2018-05-27T04:10:27.895Z,17.44
2018-05-27T04:11:27.935Z,17.51
2018-05-27T04:12:27.967Z,17.48
2018-05-27T04:13:28.003Z,17.41
2018-05-27T04:14:28.039Z,17.46
2018-05-27T04:15:28.074Z,17.52
2018-05-27T04:16:28.112Z,17.58
2018-05-27T04:17:28.145Z,17.63
2018-05-27T04:18:28.180Z,17.55
2018-05-27T04:19:28.217Z,17.48
2018-05-27T04:20:28.251Z,17.56
2018-05-27T04:21:28.312Z,17.41
2018-05-27T04:22:28.326Z,17.55
2018-05-27T04:23:28.360Z,17.58
2018-05-27T04:24:28.394Z,17.63
2018-05-27T04:25:28.430Z,17.63
2018-05-27T04:26:28.466Z,17.68
2018-05-27T04:27:28.501Z,17.64
2018-05-27T04:28:28.583Z,17.70
2018-05-27T04:29:28.573Z,17.78
2018-05-27T04:30:28.608Z,17.87
2018-05-27T04:31:28.643Z,17.89
2018-05-27T04:32:28.678Z,18.00
2018-05-27T04:33:28.721Z,17.95
2018-05-27T04:34:28.751Z,18.00
2018-05-27T04:35:28.786Z,18.08
2018-05-27T04:36:28.828Z,18.11
2018-05-27T04:37:28.858Z,18.20
2018-05-27T04:38:28.893Z,18.33
2018-05-27T04:39:28.930Z,18.33
2018-05-27T04:40:28.965Z,18.26
2018-05-27T04:41:29.000Z,18.32
2018-05-27T04:42:29.037Z,18.27
2018-05-27T04:43:29.072Z,18.29
2018-05-27T04:44:29.108Z,18.26
2018-05-27T04:45:29.144Z,18.27
2018-05-27T04:46:29.181Z,18.27
2018-05-27T04:47:29.217Z,18.37
2018-05-27T04:48:29.255Z,18.37
2018-05-27T04:49:29.288Z,18.36
2018-05-27T04:50:29.324Z,18.44
2018-05-27T04:51:29.360Z,18.44
2018-05-27T04:52:29.397Z,18.50
2018-05-27T04:53:29.432Z,18.55
2018-05-27T04:54:29.468Z,18.58
2018-05-27T04:55:29.505Z,18.65
2018-05-27T04:56:29.542Z,18.70
2018-05-27T04:57:29.578Z,18.67
2018-05-27T04:58:29.612Z,18.84
2018-05-27T04:59:29.649Z,18.92
2018-05-27T05:00:29.684Z,18.98
2018-05-27T05:01:29.721Z,18.99
2018-05-27T05:02:29.759Z,19.06
2018-05-27T05:03:29.795Z,19.19
2018-05-27T05:04:29.845Z,19.10
2018-05-27T05:05:29.867Z,19.18
2018-05-27T05:06:29.904Z,19.16
2018-05-27T05:07:29.941Z,19.16
2018-05-27T05:08:29.976Z,19.11
2018-05-27T05:09:30.031Z,19.16
2018-05-27T05:10:30.050Z,19.14
2018-05-27T05:11:30.087Z,19.11
2018-05-27T05:12:30.120Z,19.14
2018-05-27T05:13:30.159Z,19.19
2018-05-27T05:14:30.195Z,19.22
2018-05-27T05:15:30.232Z,19.33
2018-05-27T05:16:30.268Z,19.39
2018-05-27T05:17:30.306Z,19.44
2018-05-27T05:18:30.342Z,19.43
2018-05-27T05:19:30.380Z,19.59
2018-05-27T05:20:30.416Z,19.55
2018-05-27T05:21:30.909Z,19.71
2018-05-27T05:22:30.493Z,19.76
2018-05-27T05:23:30.526Z,19.77
2018-05-27T05:24:30.563Z,19.74
2018-05-27T05:25:30.598Z,19.88
2018-05-27T05:26:30.636Z,19.92
2018-05-27T05:27:30.678Z,19.92
2018-05-27T05:28:30.710Z,19.99
2018-05-27T05:29:30.746Z,20.02
2018-05-27T05:30:30.784Z,20.08
2018-05-27T05:31:30.821Z,20.23
2018-05-27T05:32:30.857Z,20.31
2018-05-27T05:33:30.894Z,20.21
2018-05-27T05:34:30.931Z,20.39
2018-05-27T05:35:30.970Z,20.35
2018-05-27T05:36:31.010Z,20.50
2018-05-27T05:37:31.044Z,20.66
2018-05-27T05:38:31.082Z,20.76
2018-05-27T05:39:31.119Z,20.80
2018-05-27T05:40:31.156Z,20.79
2018-05-27T05:41:31.193Z,20.87
2018-05-27T05:42:31.231Z,20.91
2018-05-27T05:43:31.272Z,20.98
2018-05-27T05:44:31.306Z,20.99
2018-05-27T05:45:31.344Z,21.16
2018-05-27T05:46:31.382Z,21.22
2018-05-27T05:47:31.421Z,21.28
2018-05-27T05:48:31.457Z,21.25
2018-05-27T05:49:31.495Z,21.31
2018-05-27T05:50:31.534Z,21.54
2018-05-27T05:51:31.572Z,21.59
2018-05-27T05:52:31.610Z,21.58
2018-05-27T05:53:31.652Z,21.62
2018-05-27T05:54:31.691Z,21.72
2018-05-27T05:55:31.723Z,21.88
2018-05-27T05:56:31.763Z,21.99
2018-05-27T05:57:31.808Z,22.06
2018-05-27T05:58:31.840Z,22.21
2018-05-27T05:59:31.878Z,22.30
2018-05-27T06:00:31.917Z,22.40
2018-05-27T06:01:31.955Z,22.24
2018-05-27T06:02:31.995Z,22.39
2018-05-27T06:03:32.033Z,22.52
2018-05-27T06:04:32.071Z,22.65
2018-05-27T06:05:32.109Z,22.72
2018-05-27T06:06:32.148Z,22.67
2018-05-27T06:07:32.186Z,22.67
2018-05-27T06:08:32.226Z,22.77
2018-05-27T06:09:32.265Z,22.85
2018-05-27T06:10:32.305Z,22.82
2018-05-27T06:11:32.347Z,22.70
2018-05-27T06:12:32.382Z,22.68
2018-05-27T06:13:32.473Z,22.70
2018-05-27T06:14:32.460Z,22.60
2018-05-27T06:15:32.501Z,22.61
2018-05-27T06:16:32.538Z,22.52
2018-05-27T06:17:32.579Z,22.62
2018-05-27T06:18:32.617Z,22.64
2018-05-27T06:19:32.666Z,22.54
2018-05-27T06:20:32.695Z,22.67
2018-05-27T06:21:32.735Z,22.57
2018-05-27T06:22:32.774Z,22.61
2018-05-27T06:23:32.813Z,22.65
2018-05-27T06:24:32.851Z,22.61
2018-05-27T06:25:32.891Z,22.58
2018-05-27T06:26:32.931Z,22.52
2018-05-27T06:27:32.972Z,22.46
2018-05-27T06:28:33.008Z,22.42
2018-05-27T06:29:33.048Z,22.30
2018-05-27T06:30:33.088Z,22.31
2018-05-27T06:31:33.126Z,22.35
2018-05-27T06:32:33.170Z,22.45
2018-05-27T06:33:33.203Z,22.45
2018-05-27T06:34:33.243Z,22.49
2018-05-27T06:35:33.283Z,22.61
2018-05-27T06:36:33.321Z,22.64
2018-05-27T06:37:33.361Z,22.70
2018-05-27T06:38:33.399Z,22.67
2018-05-27T06:39:33.439Z,22.90
2018-05-27T06:40:33.477Z,23.02
2018-05-27T06:41:33.515Z,23.13
2018-05-27T06:42:33.555Z,23.19
2018-05-27T06:43:33.595Z,23.32
2018-05-27T06:44:33.632Z,23.51
2018-05-27T06:45:33.672Z,23.57
2018-05-27T06:46:33.713Z,23.80
2018-05-27T06:47:33.751Z,23.85
2018-05-27T06:48:33.789Z,23.88
2018-05-27T06:49:33.833Z,23.98
2018-05-27T06:50:33.871Z,24.18
2018-05-27T06:51:33.909Z,24.15
2018-05-27T06:52:33.947Z,24.31
2018-05-27T06:53:33.991Z,24.27
2018-05-27T06:54:34.026Z,24.42
2018-05-27T06:55:34.072Z,24.49
2018-05-27T06:56:34.109Z,24.58
2018-05-27T06:57:34.146Z,24.69
2018-05-27T06:58:34.184Z,24.76
2018-05-27T06:59:34.226Z,24.71
2018-05-27T07:00:34.265Z,24.95
2018-05-27T07:01:34.305Z,24.93
2018-05-27T07:02:34.345Z,24.64
2018-05-27T07:03:34.429Z,24.68
2018-05-27T07:04:34.476Z,24.88
2018-05-27T07:05:34.466Z,24.88
2018-05-27T07:06:34.507Z,24.98
2018-05-27T07:07:34.547Z,24.95
2018-05-27T07:08:34.587Z,25.08
2018-05-27T07:09:34.626Z,25.09
2018-05-27T07:10:34.667Z,25.32
2018-05-27T07:11:34.755Z,25.42
2018-05-27T07:12:34.746Z,25.60
2018-05-27T07:13:34.788Z,25.67
2018-05-27T07:14:34.828Z,25.88
2018-05-27T07:15:34.871Z,25.92
2018-05-27T07:16:34.909Z,25.87
2018-05-27T07:17:34.948Z,26.06
2018-05-27T07:18:34.990Z,26.07
2018-05-27T07:19:35.033Z,25.98
2018-05-27T07:20:35.070Z,26.29
2018-05-27T07:21:35.112Z,26.32
2018-05-27T07:22:35.153Z,26.40
2018-05-27T07:23:35.195Z,26.44
2018-05-27T07:24:35.235Z,26.51
2018-05-27T07:25:35.277Z,26.62
2018-05-27T07:26:35.318Z,26.50
2018-05-27T07:27:35.359Z,26.45
2018-05-27T07:28:35.402Z,26.62
2018-05-27T07:29:35.440Z,26.60
2018-05-27T07:30:35.483Z,26.70
2018-05-27T07:31:35.524Z,26.77
2018-05-27T07:32:36.189Z,26.77
2018-05-27T07:34:35.696Z,26.91
2018-05-27T07:35:35.706Z,27.07
2018-05-27T07:36:36.362Z,27.07
2018-05-27T07:38:36.017Z,26.66
2018-05-27T07:39:35.875Z,26.63
2018-05-27T07:41:36.469Z,26.54
2018-05-27T07:43:36.023Z,26.36
2018-05-27T07:45:36.105Z,26.39
2018-05-27T07:46:36.209Z,26.21
2018-05-27T07:47:36.209Z,26.36
2018-05-27T07:48:36.230Z,26.47
2018-05-27T07:49:36.272Z,26.55
2018-05-27T07:50:36.331Z,26.66
2018-05-27T07:51:36.378Z,26.62
2018-05-27T07:52:36.775Z,26.99
2018-05-27T07:53:36.438Z,27.04
2018-05-27T07:54:36.500Z,27.13
2018-05-27T07:55:36.521Z,27.12
2018-05-27T07:56:36.563Z,27.36
2018-05-27T07:57:36.605Z,27.34
2018-05-27T07:58:36.658Z,27.31
2018-05-27T07:59:36.689Z,27.14
2018-05-27T08:00:36.729Z,27.21
2018-05-27T08:01:36.772Z,27.21
2018-05-27T08:02:36.818Z,27.03
2018-05-27T08:03:36.856Z,26.85
2018-05-27T08:04:36.897Z,26.92
2018-05-27T08:05:36.978Z,26.66
2018-05-27T08:06:37.056Z,26.85
2018-05-27T08:07:37.025Z,26.89
2018-05-27T08:08:37.066Z,27.06
2018-05-27T08:09:37.109Z,27.04
2018-05-27T08:10:37.150Z,26.84
2018-05-27T08:11:37.192Z,26.88
2018-05-27T08:12:37.234Z,27.00
2018-05-27T08:13:37.293Z,27.27
2018-05-27T08:14:37.319Z,27.51
2018-05-27T08:15:37.360Z,27.55
2018-05-27T08:16:37.404Z,27.50
2018-05-27T08:17:37.446Z,27.49
2018-05-27T08:18:37.489Z,27.47
2018-05-27T08:19:37.531Z,27.57
2018-05-27T08:20:37.572Z,27.75
2018-05-27T08:21:37.615Z,27.93
2018-05-27T08:22:37.678Z,27.92
2018-05-27T08:23:37.702Z,27.94
2018-05-27T08:24:37.742Z,28.12
2018-05-27T08:25:37.783Z,28.44
2018-05-27T08:26:37.827Z,28.43
2018-05-27T08:27:37.869Z,28.46
2018-05-27T08:28:37.912Z,28.62
2018-05-27T08:29:37.954Z,28.70
2018-05-27T08:30:37.997Z,28.70
2018-05-27T08:31:38.265Z,28.41
2018-05-27T08:32:38.081Z,28.17
2018-05-27T08:33:38.124Z,28.14
2018-05-27T08:34:38.167Z,28.34
2018-05-27T08:35:38.212Z,28.58
2018-05-27T08:36:38.453Z,28.80
2018-05-27T08:37:38.298Z,28.81
2018-05-27T08:38:38.338Z,28.92
2018-05-27T08:39:38.406Z,28.95
2018-05-27T08:40:38.423Z,28.83
2018-05-27T08:41:38.470Z,29.09
2018-05-27T08:42:38.509Z,29.37
2018-05-27T08:43:38.551Z,29.30
2018-05-27T08:44:38.594Z,29.08
2018-05-27T08:45:38.838Z,28.95
2018-05-27T08:46:38.680Z,29.18
2018-05-27T08:47:38.723Z,29.31
2018-05-27T08:49:38.809Z,29.28
2018-05-27T08:50:38.852Z,29.16
2018-05-27T08:51:38.897Z,29.33
2018-05-27T08:52:38.937Z,29.41
2018-05-27T08:53:38.981Z,29.49
2018-05-27T08:54:39.028Z,29.65
2018-05-27T08:55:39.071Z,29.73
2018-05-27T08:56:39.110Z,29.70
2018-05-27T08:57:39.154Z,29.65
2018-05-27T08:58:39.222Z,29.42
2018-05-27T08:59:39.241Z,29.41
2018-05-27T09:00:39.284Z,29.43
2018-05-27T09:01:39.328Z,29.49
2018-05-27T09:02:39.370Z,29.64
2018-05-27T09:03:39.460Z,29.89
2018-05-27T09:04:39.457Z,30.16
2018-05-27T09:05:39.501Z,30.29
2018-05-27T09:06:39.544Z,30.47
2018-05-27T09:07:39.589Z,30.01
2018-05-27T09:08:39.632Z,30.39
2018-05-27T09:09:39.675Z,30.37
2018-05-27T09:10:39.719Z,30.82
2018-05-27T09:11:39.764Z,30.83
2018-05-27T09:12:39.808Z,30.84
2018-05-27T09:13:39.850Z,30.57
2018-05-27T09:14:39.896Z,30.91
2018-05-27T09:15:39.941Z,31.23
2018-05-27T09:16:39.984Z,31.44
2018-05-27T09:17:40.030Z,31.21
2018-05-27T09:18:40.072Z,31.23
2018-05-27T09:19:40.117Z,31.06
2018-05-27T09:20:40.163Z,30.83
2018-05-27T09:21:40.207Z,30.88
2018-05-27T09:22:40.255Z,30.88
2018-05-27T09:23:40.296Z,30.88
2018-05-27T09:24:40.340Z,31.10
2018-05-27T09:25:40.383Z,31.28
2018-05-27T09:26:40.429Z,31.25
2018-05-27T09:27:40.472Z,31.41
2018-05-27T09:28:40.517Z,31.44
2018-05-27T09:29:40.562Z,31.32
2018-05-27T09:30:40.608Z,31.57
2018-05-27T09:31:40.652Z,31.51
2018-05-27T09:32:40.696Z,31.13
2018-05-27T09:33:40.741Z,31.16
2018-05-27T09:34:40.788Z,31.29
2018-05-27T09:35:40.831Z,31.39
2018-05-27T09:36:40.876Z,31.29
2018-05-27T09:37:40.921Z,31.50
2018-05-27T09:38:40.966Z,31.88
2018-05-27T09:39:41.011Z,31.84
2018-05-27T09:40:41.056Z,31.86
2018-05-27T09:41:41.101Z,31.88
2018-05-27T09:42:41.147Z,31.66
2018-05-27T09:43:41.194Z,31.76
2018-05-27T09:44:41.236Z,31.57
2018-05-27T09:45:41.282Z,31.70
2018-05-27T09:46:41.327Z,31.61
2018-05-27T09:47:41.373Z,31.69
2018-05-27T09:48:41.418Z,31.66
2018-05-27T09:49:41.464Z,31.66
2018-05-27T09:50:41.509Z,31.38
2018-05-27T09:51:41.556Z,31.31
2018-05-27T09:52:41.600Z,31.48
2018-05-27T09:53:41.645Z,31.72
2018-05-27T09:54:41.690Z,31.70
2018-05-27T09:55:41.737Z,31.78
2018-05-27T09:56:41.782Z,31.28
2018-05-27T09:57:41.828Z,31.41
2018-05-27T09:58:41.872Z,31.47
2018-05-27T09:59:41.919Z,31.29
2018-05-27T10:00:41.965Z,31.63
2018-05-27T10:01:42.011Z,31.56
2018-05-27T10:02:42.054Z,31.32
2018-05-27T10:03:42.104Z,31.21
2018-05-27T10:04:42.145Z,31.10
2018-05-27T10:05:42.192Z,31.13
2018-05-27T10:06:42.238Z,31.14
2018-05-27T10:07:42.284Z,31.25
2018-05-27T10:08:42.329Z,31.31
2018-05-27T10:09:42.375Z,31.13
2018-05-27T10:10:42.421Z,30.72
2018-05-27T10:11:42.501Z,30.86
2018-05-27T10:12:42.527Z,30.64
2018-05-27T10:13:42.579Z,30.83
2018-05-27T10:14:42.605Z,30.89
2018-05-27T10:15:42.649Z,30.69
2018-05-27T10:16:42.695Z,30.34
2018-05-27T10:17:42.741Z,30.53
2018-05-27T10:18:42.787Z,30.89
2018-05-27T10:19:42.832Z,30.88
2018-05-27T10:20:42.882Z,31.13
2018-05-27T10:21:42.923Z,31.14
2018-05-27T10:22:42.970Z,31.32
2018-05-27T10:23:43.017Z,31.10
2018-05-27T10:24:43.061Z,31.26
2018-05-27T10:25:43.107Z,31.63
2018-05-27T10:26:43.152Z,31.80
2018-05-27T10:27:43.199Z,32.01
2018-05-27T10:28:43.243Z,31.93
2018-05-27T10:29:43.289Z,32.48
2018-05-27T10:30:43.335Z,32.96
2018-05-27T10:31:43.386Z,33.56
2018-05-27T10:32:43.469Z,33.93
2018-05-27T10:33:43.480Z,34.17
2018-05-27T10:34:43.524Z,35.00
2018-05-27T10:35:43.572Z,35.63
2018-05-27T10:36:43.618Z,36.28
2018-05-27T10:37:43.667Z,36.62
2018-05-27T10:38:43.716Z,35.81
2018-05-27T10:39:43.765Z,36.47
2018-05-27T10:40:43.816Z,36.94
2018-05-27T10:41:43.868Z,37.76
2018-05-27T10:42:43.918Z,37.89
2018-05-27T10:43:43.969Z,38.16
2018-05-27T10:44:44.019Z,38.44
2018-05-27T10:45:44.070Z,38.63
2018-05-27T10:46:44.123Z,38.74
2018-05-27T10:47:44.176Z,39.17
2018-05-27T10:48:44.228Z,38.91
2018-05-27T10:49:44.283Z,38.18
2018-05-27T10:50:44.334Z,38.59
2018-05-27T10:51:44.388Z,38.42
2018-05-27T10:52:44.441Z,38.66
2018-05-27T10:53:44.498Z,39.11
2018-05-27T10:54:44.549Z,38.60
2018-05-27T10:55:44.603Z,39.35
2018-05-27T10:56:44.657Z,38.61
2018-05-27T10:57:44.712Z,39.36
2018-05-27T10:58:44.766Z,39.51
2018-05-27T10:59:44.822Z,39.62
2018-05-27T11:00:44.877Z,40.26
2018-05-27T11:01:44.932Z,40.87
2018-05-27T11:02:44.988Z,41.41
2018-05-27T11:03:45.047Z,41.82
2018-05-27T11:04:45.098Z,42.16
2018-05-27T11:05:45.204Z,41.84
2018-05-27T11:06:45.209Z,41.70
2018-05-27T11:07:45.267Z,42.49
2018-05-27T11:08:45.322Z,42.62
2018-05-27T11:09:45.379Z,42.74
2018-05-27T11:10:45.438Z,42.83
2018-05-27T11:13:45.831Z,42.62
2018-05-27T11:15:45.724Z,42.36
2018-05-27T11:16:45.799Z,42.47
2018-05-27T11:17:45.834Z,42.23
2018-05-27T11:21:46.063Z,41.55
2018-05-27T11:22:46.121Z,40.80
2018-05-27T11:23:46.180Z,40.95
2018-05-27T11:25:46.295Z,41.10
2018-05-27T11:26:46.354Z,40.73
2018-05-27T11:27:46.417Z,41.13
2018-05-27T11:29:46.528Z,41.87
2018-05-27T11:30:46.589Z,41.78
2018-05-27T11:31:46.646Z,41.67
2018-05-27T11:32:46.705Z,41.60
2018-05-27T11:33:46.768Z,42.77
2018-05-27T11:34:46.821Z,43.42
2018-05-27T11:35:46.885Z,43.31
2018-05-27T11:36:46.939Z,43.50
2018-05-27T11:37:46.999Z,43.53
2018-05-27T11:38:47.058Z,43.50
2018-05-27T11:39:47.117Z,43.76
2018-05-27T11:40:47.175Z,43.31
2018-05-27T11:41:47.234Z,43.19
2018-05-27T11:42:47.293Z,43.11
2018-05-27T11:43:47.352Z,43.56
2018-05-27T11:44:47.409Z,43.79
2018-05-27T11:45:47.468Z,44.03
2018-05-27T11:46:47.527Z,44.21
2018-05-27T11:47:47.585Z,44.46
2018-05-27T11:48:47.644Z,44.26
2018-05-27T11:49:47.703Z,44.07
2018-05-27T11:50:47.770Z,43.93
2018-05-27T11:51:47.821Z,43.76
2018-05-27T11:52:47.877Z,43.78
2018-05-27T11:53:47.937Z,43.40
2018-05-27T11:54:47.996Z,42.35
2018-05-27T11:55:48.055Z,42.08
2018-05-27T11:56:48.112Z,42.09
2018-05-27T11:57:48.169Z,42.81
2018-05-27T11:58:48.232Z,42.45
2018-05-27T11:59:48.288Z,42.64
2018-05-27T12:00:48.344Z,41.23
2018-05-27T12:01:48.430Z,40.39
2018-05-27T12:02:48.461Z,39.09
2018-05-27T12:03:48.517Z,38.07
2018-05-27T12:04:48.574Z,38.99
2018-05-27T12:05:48.633Z,39.63
2018-05-27T12:06:48.691Z,40.22
2018-05-27T12:07:48.749Z,40.42
2018-05-27T12:08:48.802Z,39.85
2018-05-27T12:09:48.860Z,38.90
2018-05-27T12:10:48.916Z,39.07
2018-05-27T12:11:49.022Z,39.89
2018-05-27T12:12:49.029Z,40.22
2018-05-27T12:13:49.086Z,40.67
2018-05-27T12:14:49.142Z,40.72
2018-05-27T12:15:49.200Z,41.28
2018-05-27T12:16:49.254Z,41.16
2018-05-27T12:17:49.311Z,40.06
2018-05-27T12:18:49.365Z,39.59
2018-05-27T12:19:49.422Z,39.55
2018-05-27T12:20:49.477Z,38.90
2018-05-27T12:21:49.533Z,39.33
2018-05-27T12:22:49.589Z,39.54
2018-05-27T12:23:49.644Z,39.81
2018-05-27T12:24:49.698Z,40.18
2018-05-27T12:25:49.755Z,40.08
2018-05-27T12:26:49.809Z,40.19
2018-05-27T12:27:49.863Z,39.66
2018-05-27T12:28:49.918Z,39.41
2018-05-27T12:29:49.992Z,38.19
2018-05-27T12:30:50.031Z,38.60
2018-05-27T12:31:50.083Z,38.83
2018-05-27T12:32:50.136Z,38.50
2018-05-27T12:33:50.192Z,37.97
2018-05-27T12:34:50.247Z,37.79
2018-05-27T12:35:50.301Z,38.09
2018-05-27T12:36:50.359Z,38.01
2018-05-27T12:37:50.408Z,37.97
2018-05-27T12:38:50.464Z,37.66
2018-05-27T12:39:50.519Z,37.28
2018-05-27T12:40:50.578Z,37.63
2018-05-27T12:41:50.627Z,37.12
2018-05-27T12:42:50.713Z,37.75
2018-05-27T12:43:50.736Z,37.32
2018-05-27T12:44:50.787Z,37.47
2018-05-27T12:45:50.845Z,37.00
2018-05-27T12:46:50.896Z,37.91
2018-05-27T12:47:50.950Z,36.78
2018-05-27T12:48:51.003Z,36.75
2018-05-27T12:49:51.057Z,36.98
2018-05-27T12:50:51.110Z,36.28
2018-05-27T12:51:51.170Z,36.73
2018-05-27T12:52:51.220Z,36.95
2018-05-27T12:53:51.273Z,37.66
2018-05-27T12:54:51.365Z,38.22
2018-05-27T12:55:51.381Z,38.09
2018-05-27T12:56:51.434Z,37.96
2018-05-27T12:57:51.491Z,38.09
2018-05-27T12:58:51.547Z,38.22
2018-05-27T12:59:51.597Z,38.09
2018-05-27T13:00:51.650Z,38.60
2018-05-27T13:01:51.704Z,39.29
2018-05-27T13:02:51.759Z,39.04
2018-05-27T13:03:51.812Z,38.87
2018-05-27T13:04:51.865Z,39.55
2018-05-27T13:05:51.956Z,40.39
2018-05-27T13:06:51.975Z,40.94